sensor_id;sensor_type;location;lat;lon;timestamp;P1;durP1;ratioP1;P2;durP2;ratioP2
5519;SDS011;2782;52.362;10.012;2022-12-24T00:00:48;5.65;;;4.50;;
5519;SDS011;2782;52.362;10.012;2022-12-24T00:01:49;5.37;;;4.67;;
5519;SDS011;2782;52.362;10.012;2022-12-24T00:02:51;5.40;;;4.65;;
5519;SDS011;2782;52.362;10.012;2022-12-24T00:03:51;3.80;;;3.50;;
5519;SDS011;2782;52.362;10.012;2022-12-24T00:04:53;5.10;;;4.60;;
5519;SDS011;2782;52.362;10.012;2022-12-24T00:05:54;5.43;;;4.53;;
5519;SDS011;2782;52.362;10.012;2022-12-24T00:06:55;4.43;;;3.95;;
5519;SDS011;2782;52.362;10.012;2022-12-24T00:07:56;5.60;;;4.13;;
5519;SDS011;2782;52.362;10.012;2022-12-24T00:08:58;4.93;;;4.53;;
5519;SDS011;2782;52.362;10.012;2022-12-24T00:10:00;3.87;;;3.57;;
5519;SDS011;2782;52.362;10.012;2022-12-24T00:11:01;7.47;;;4.00;;
5519;SDS011;2782;52.362;10.012;2022-12-24T00:12:02;4.17;;;3.77;;
5519;SDS011;2782;52.362;10.012;2022-12-24T00:13:04;4.10;;;3.70;;
5519;SDS011;2782;52.362;10.012;2022-12-24T00:14:05;4.40;;;4.00;;
5519;SDS011;2782;52.362;10.012;2022-12-24T00:15:07;4.45;;;3.97;;
5519;SDS011;2782;52.362;10.012;2022-12-24T00:16:08;7.35;;;4.28;;
5519;SDS011;2782;52.362;10.012;2022-12-24T00:17:10;4.65;;;3.67;;
5519;SDS011;2782;52.362;10.012;2022-12-24T00:18:10;4.23;;;3.83;;
5519;SDS011;2782;52.362;10.012;2022-12-24T00:19:12;6.40;;;3.72;;
5519;SDS011;2782;52.362;10.012;2022-12-24T00:20:13;4.50;;;3.60;;
5519;SDS011;2782;52.362;10.012;2022-12-24T00:21:14;4.68;;;4.28;;
5519;SDS011;2782;52.362;10.012;2022-12-24T00:22:15;5.50;;;4.20;;
5519;SDS011;2782;52.362;10.012;2022-12-24T00:23:17;5.00;;;3.83;;
5519;SDS011;2782;52.362;10.012;2022-12-24T00:24:18;3.47;;;3.17;;
5519;SDS011;2782;52.362;10.012;2022-12-24T00:25:21;4.88;;;3.83;;
5519;SDS011;2782;52.362;10.012;2022-12-24T00:26:21;12.73;;;3.67;;
5519;SDS011;2782;52.362;10.012;2022-12-24T00:27:23;4.38;;;3.90;;
5519;SDS011;2782;52.362;10.012;2022-12-24T00:28:23;6.03;;;3.40;;
5519;SDS011;2782;52.362;10.012;2022-12-24T00:29:25;4.45;;;4.05;;
5519;SDS011;2782;52.362;10.012;2022-12-24T00:30:26;4.13;;;3.37;;
5519;SDS011;2782;52.362;10.012;2022-12-24T00:31:27;3.97;;;3.58;;
5519;SDS011;2782;52.362;10.012;2022-12-24T00:32:28;5.63;;;3.70;;
5519;SDS011;2782;52.362;10.012;2022-12-24T00:33:30;3.95;;;3.65;;
5519;SDS011;2782;52.362;10.012;2022-12-24T00:34:30;4.10;;;3.63;;
5519;SDS011;2782;52.362;10.012;2022-12-24T00:35:32;6.18;;;3.47;;
5519;SDS011;2782;52.362;10.012;2022-12-24T00:36:33;4.00;;;3.63;;
5519;SDS011;2782;52.362;10.012;2022-12-24T00:37:35;3.30;;;3.10;;
5519;SDS011;2782;52.362;10.012;2022-12-24T00:38:36;4.93;;;3.67;;
5519;SDS011;2782;52.362;10.012;2022-12-24T00:39:37;6.90;;;3.20;;
5519;SDS011;2782;52.362;10.012;2022-12-24T00:40:39;4.67;;;3.20;;
5519;SDS011;2782;52.362;10.012;2022-12-24T00:41:41;4.55;;;3.40;;
5519;SDS011;2782;52.362;10.012;2022-12-24T00:42:42;3.80;;;3.50;;
5519;SDS011;2782;52.362;10.012;2022-12-24T00:43:44;5.70;;;3.72;;
5519;SDS011;2782;52.362;10.012;2022-12-24T00:44:44;3.87;;;3.20;;
5519;SDS011;2782;52.362;10.012;2022-12-24T00:45:46;4.20;;;3.80;;
5519;SDS011;2782;52.362;10.012;2022-12-24T00:46:46;3.83;;;3.40;;
5519;SDS011;2782;52.362;10.012;2022-12-24T00:47:48;5.10;;;2.90;;
5519;SDS011;2782;52.362;10.012;2022-12-24T00:48:49;5.90;;;2.87;;
5519;SDS011;2782;52.362;10.012;2022-12-24T00:49:50;3.75;;;3.45;;
5519;SDS011;2782;52.362;10.012;2022-12-24T00:50:51;2.90;;;2.70;;
5519;SDS011;2782;52.362;10.012;2022-12-24T00:51:53;5.05;;;2.83;;
5519;SDS011;2782;52.362;10.012;2022-12-24T00:52:53;7.23;;;2.83;;
5519;SDS011;2782;52.362;10.012;2022-12-24T00:53:55;5.07;;;2.88;;
5519;SDS011;2782;52.362;10.012;2022-12-24T00:54:56;6.85;;;3.65;;
5519;SDS011;2782;52.362;10.012;2022-12-24T00:55:58;3.30;;;3.00;;
5519;SDS011;2782;52.362;10.012;2022-12-24T00:57:00;4.15;;;2.90;;
5519;SDS011;2782;52.362;10.012;2022-12-24T00:58:01;3.67;;;2.95;;
5519;SDS011;2782;52.362;10.012;2022-12-24T00:59:02;4.33;;;2.73;;
5519;SDS011;2782;52.362;10.012;2022-12-24T01:00:05;4.03;;;3.03;;
5519;SDS011;2782;52.362;10.012;2022-12-24T01:01:06;3.83;;;3.05;;
5519;SDS011;2782;52.362;10.012;2022-12-24T01:02:08;2.90;;;2.70;;
5519;SDS011;2782;52.362;10.012;2022-12-24T01:03:08;3.33;;;3.03;;
5519;SDS011;2782;52.362;10.012;2022-12-24T01:04:10;3.63;;;2.70;;
5519;SDS011;2782;52.362;10.012;2022-12-24T01:05:29;3.47;;;2.85;;
5519;SDS011;2782;52.362;10.012;2022-12-24T01:06:30;12.33;;;3.53;;
5519;SDS011;2782;52.362;10.012;2022-12-24T01:07:31;4.73;;;2.97;;
5519;SDS011;2782;52.362;10.012;2022-12-24T01:08:32;4.25;;;2.78;;
5519;SDS011;2782;52.362;10.012;2022-12-24T01:09:34;4.35;;;2.80;;
5519;SDS011;2782;52.362;10.012;2022-12-24T01:10:35;3.27;;;2.97;;
5519;SDS011;2782;52.362;10.012;2022-12-24T01:11:38;12.43;;;3.47;;
5519;SDS011;2782;52.362;10.012;2022-12-24T01:12:39;8.82;;;3.30;;
5519;SDS011;2782;52.362;10.012;2022-12-24T01:13:41;7.50;;;2.90;;
5519;SDS011;2782;52.362;10.012;2022-12-24T01:14:42;5.30;;;2.70;;
5519;SDS011;2782;52.362;10.012;2022-12-24T01:15:43;4.40;;;2.60;;
5519;SDS011;2782;52.362;10.012;2022-12-24T01:16:44;3.67;;;2.43;;
5519;SDS011;2782;52.362;10.012;2022-12-24T01:17:46;5.07;;;2.30;;
5519;SDS011;2782;52.362;10.012;2022-12-24T01:18:47;3.15;;;2.33;;
5519;SDS011;2782;52.362;10.012;2022-12-24T01:19:49;3.08;;;2.75;;
5519;SDS011;2782;52.362;10.012;2022-12-24T01:20:54;5.03;;;2.17;;
5519;SDS011;2782;52.362;10.012;2022-12-24T01:21:57;4.10;;;2.55;;
5519;SDS011;2782;52.362;10.012;2022-12-24T01:22:58;3.13;;;2.40;;
5519;SDS011;2782;52.362;10.012;2022-12-24T01:24:00;2.45;;;1.90;;
5519;SDS011;2782;52.362;10.012;2022-12-24T01:25:01;2.43;;;2.20;;
5519;SDS011;2782;52.362;10.012;2022-12-24T01:26:02;4.68;;;2.85;;
5519;SDS011;2782;52.362;10.012;2022-12-24T01:27:06;5.88;;;2.33;;
5519;SDS011;2782;52.362;10.012;2022-12-24T01:28:07;4.43;;;2.67;;
5519;SDS011;2782;52.362;10.012;2022-12-24T01:29:08;2.60;;;2.33;;
5519;SDS011;2782;52.362;10.012;2022-12-24T01:30:10;2.78;;;2.00;;
5519;SDS011;2782;52.362;10.012;2022-12-24T01:31:14;2.20;;;2.10;;
5519;SDS011;2782;52.362;10.012;2022-12-24T01:32:17;2.75;;;2.50;;
5519;SDS011;2782;52.362;10.012;2022-12-24T01:33:17;2.73;;;2.53;;
5519;SDS011;2782;52.362;10.012;2022-12-24T01:34:19;5.55;;;2.63;;
5519;SDS011;2782;52.362;10.012;2022-12-24T01:35:20;2.77;;;2.30;;
5519;SDS011;2782;52.362;10.012;2022-12-24T01:36:21;5.13;;;2.50;;
5519;SDS011;2782;52.362;10.012;2022-12-24T01:37:22;3.07;;;2.63;;
5519;SDS011;2782;52.362;10.012;2022-12-24T01:38:23;6.70;;;2.70;;
5519;SDS011;2782;52.362;10.012;2022-12-24T01:39:24;3.80;;;2.43;;
5519;SDS011;2782;52.362;10.012;2022-12-24T01:40:25;4.03;;;1.95;;
5519;SDS011;2782;52.362;10.012;2022-12-24T01:41:45;3.05;;;1.95;;
5519;SDS011;2782;52.362;10.012;2022-12-24T01:43:02;5.47;;;2.17;;
5519;SDS011;2782;52.362;10.012;2022-12-24T01:44:24;2.40;;;2.20;;
5519;SDS011;2782;52.362;10.012;2022-12-24T01:45:44;2.38;;;1.98;;
5519;SDS011;2782;52.362;10.012;2022-12-24T01:46:47;6.13;;;3.22;;
5519;SDS011;2782;52.362;10.012;2022-12-24T01:47:50;3.80;;;1.92;;
5519;SDS011;2782;52.362;10.012;2022-12-24T01:48:52;2.13;;;1.98;;
5519;SDS011;2782;52.362;10.012;2022-12-24T01:49:56;2.13;;;1.92;;
5519;SDS011;2782;52.362;10.012;2022-12-24T01:50:59;2.35;;;2.10;;
5519;SDS011;2782;52.362;10.012;2022-12-24T01:52:07;3.67;;;2.05;;
5519;SDS011;2782;52.362;10.012;2022-12-24T01:53:10;2.90;;;2.30;;
5519;SDS011;2782;52.362;10.012;2022-12-24T01:54:14;6.90;;;1.85;;
5519;SDS011;2782;52.362;10.012;2022-12-24T01:55:20;2.70;;;2.25;;
5519;SDS011;2782;52.362;10.012;2022-12-24T01:56:21;3.07;;;1.60;;
5519;SDS011;2782;52.362;10.012;2022-12-24T01:57:24;2.40;;;2.20;;
5519;SDS011;2782;52.362;10.012;2022-12-24T01:58:29;3.80;;;2.20;;
5519;SDS011;2782;52.362;10.012;2022-12-24T01:59:32;2.47;;;2.25;;
5519;SDS011;2782;52.362;10.012;2022-12-24T02:00:34;2.03;;;1.83;;
5519;SDS011;2782;52.362;10.012;2022-12-24T02:01:35;2.33;;;1.80;;
5519;SDS011;2782;52.362;10.012;2022-12-24T02:02:37;2.17;;;1.77;;
5519;SDS011;2782;52.362;10.012;2022-12-24T02:03:39;2.85;;;1.95;;
5519;SDS011;2782;52.362;10.012;2022-12-24T02:04:41;4.47;;;2.03;;
5519;SDS011;2782;52.362;10.012;2022-12-24T02:05:48;2.55;;;2.13;;
5519;SDS011;2782;52.362;10.012;2022-12-24T02:06:51;2.63;;;1.63;;
5519;SDS011;2782;52.362;10.012;2022-12-24T02:07:52;2.63;;;1.50;;
5519;SDS011;2782;52.362;10.012;2022-12-24T02:08:53;2.45;;;1.50;;
5519;SDS011;2782;52.362;10.012;2022-12-24T02:09:55;2.30;;;2.17;;
5519;SDS011;2782;52.362;10.012;2022-12-24T02:10:58;1.77;;;1.67;;
5519;SDS011;2782;52.362;10.012;2022-12-24T02:11:59;6.38;;;1.85;;
5519;SDS011;2782;52.362;10.012;2022-12-24T02:13:01;4.60;;;2.28;;
5519;SDS011;2782;52.362;10.012;2022-12-24T02:14:04;2.75;;;1.50;;
5519;SDS011;2782;52.362;10.012;2022-12-24T02:15:06;1.95;;;1.70;;
5519;SDS011;2782;52.362;10.012;2022-12-24T02:16:13;3.95;;;1.80;;
5519;SDS011;2782;52.362;10.012;2022-12-24T02:17:25;2.25;;;1.77;;
5519;SDS011;2782;52.362;10.012;2022-12-24T02:18:30;2.00;;;1.80;;
5519;SDS011;2782;52.362;10.012;2022-12-24T02:19:54;1.95;;;1.75;;
5519;SDS011;2782;52.362;10.012;2022-12-24T02:21:30;2.10;;;1.90;;
5519;SDS011;2782;52.362;10.012;2022-12-24T02:22:51;7.25;;;1.60;;
5519;SDS011;2782;52.362;10.012;2022-12-24T02:26:07;2.40;;;1.55;;
5519;SDS011;2782;52.362;10.012;2022-12-24T02:27:28;1.85;;;1.75;;
5519;SDS011;2782;52.362;10.012;2022-12-24T02:28:42;2.00;;;1.90;;
5519;SDS011;2782;52.362;10.012;2022-12-24T02:30:07;2.30;;;2.10;;
5519;SDS011;2782;52.362;10.012;2022-12-24T02:31:14;1.60;;;1.50;;
5519;SDS011;2782;52.362;10.012;2022-12-24T02:32:21;1.40;;;1.40;;
5519;SDS011;2782;52.362;10.012;2022-12-24T02:33:26;1.48;;;1.38;;
5519;SDS011;2782;52.362;10.012;2022-12-24T02:34:35;1.80;;;1.70;;
5519;SDS011;2782;52.362;10.012;2022-12-24T02:35:41;1.90;;;1.30;;
5519;SDS011;2782;52.362;10.012;2022-12-24T02:36:51;3.30;;;1.55;;
5519;SDS011;2782;52.362;10.012;2022-12-24T02:37:57;1.95;;;1.70;;
5519;SDS011;2782;52.362;10.012;2022-12-24T02:39:07;1.60;;;1.38;;
5519;SDS011;2782;52.362;10.012;2022-12-24T02:40:12;1.70;;;1.58;;
5519;SDS011;2782;52.362;10.012;2022-12-24T02:41:17;2.10;;;1.90;;
5519;SDS011;2782;52.362;10.012;2022-12-24T02:42:24;2.58;;;1.63;;
5519;SDS011;2782;52.362;10.012;2022-12-24T02:43:30;4.25;;;1.65;;
5519;SDS011;2782;52.362;10.012;2022-12-24T02:44:36;1.73;;;1.42;;
5519;SDS011;2782;52.362;10.012;2022-12-24T02:45:42;1.58;;;1.40;;
5519;SDS011;2782;52.362;10.012;2022-12-24T02:46:46;1.58;;;1.45;;
5519;SDS011;2782;52.362;10.012;2022-12-24T02:47:48;1.80;;;1.52;;
5519;SDS011;2782;52.362;10.012;2022-12-24T02:48:52;3.72;;;1.88;;
5519;SDS011;2782;52.362;10.012;2022-12-24T02:49:53;1.87;;;1.67;;
5519;SDS011;2782;52.362;10.012;2022-12-24T02:50:56;1.60;;;1.50;;
5519;SDS011;2782;52.362;10.012;2022-12-24T02:51:58;2.17;;;1.45;;
5519;SDS011;2782;52.362;10.012;2022-12-24T02:53:00;2.58;;;1.52;;
5519;SDS011;2782;52.362;10.012;2022-12-24T02:54:00;1.43;;;1.33;;
5519;SDS011;2782;52.362;10.012;2022-12-24T02:55:03;1.20;;;1.10;;
5519;SDS011;2782;52.362;10.012;2022-12-24T02:56:12;1.30;;;1.23;;
5519;SDS011;2782;52.362;10.012;2022-12-24T02:57:34;2.47;;;1.20;;
5519;SDS011;2782;52.362;10.012;2022-12-24T02:58:50;1.60;;;1.48;;
5519;SDS011;2782;52.362;10.012;2022-12-24T03:00:05;2.85;;;1.60;;
5519;SDS011;2782;52.362;10.012;2022-12-24T03:01:11;1.70;;;1.60;;
5519;SDS011;2782;52.362;10.012;2022-12-24T03:02:23;1.50;;;1.40;;
5519;SDS011;2782;52.362;10.012;2022-12-24T03:03:33;1.92;;;1.55;;
5519;SDS011;2782;52.362;10.012;2022-12-24T03:04:42;1.02;;;1.02;;
5519;SDS011;2782;52.362;10.012;2022-12-24T03:05:48;1.50;;;1.13;;
5519;SDS011;2782;52.362;10.012;2022-12-24T03:06:54;1.60;;;1.50;;
5519;SDS011;2782;52.362;10.012;2022-12-24T03:08:00;1.52;;;1.30;;
5519;SDS011;2782;52.362;10.012;2022-12-24T03:09:07;1.45;;;1.35;;
5519;SDS011;2782;52.362;10.012;2022-12-24T03:10:15;1.60;;;1.50;;
5519;SDS011;2782;52.362;10.012;2022-12-24T03:11:20;2.55;;;1.30;;
5519;SDS011;2782;52.362;10.012;2022-12-24T03:12:23;1.17;;;1.07;;
5519;SDS011;2782;52.362;10.012;2022-12-24T03:13:28;1.40;;;1.30;;
5519;SDS011;2782;52.362;10.012;2022-12-24T03:14:29;1.67;;;1.57;;
5519;SDS011;2782;52.362;10.012;2022-12-24T03:15:31;1.17;;;1.08;;
5519;SDS011;2782;52.362;10.012;2022-12-24T03:16:34;1.40;;;1.30;;
5519;SDS011;2782;52.362;10.012;2022-12-24T03:17:36;1.35;;;1.25;;
5519;SDS011;2782;52.362;10.012;2022-12-24T03:18:40;1.30;;;1.20;;
5519;SDS011;2782;52.362;10.012;2022-12-24T03:19:45;1.27;;;1.17;;
5519;SDS011;2782;52.362;10.012;2022-12-24T03:20:48;1.55;;;1.33;;
5519;SDS011;2782;52.362;10.012;2022-12-24T03:21:54;1.00;;;1.00;;
5519;SDS011;2782;52.362;10.012;2022-12-24T03:22:57;1.20;;;1.10;;
5519;SDS011;2782;52.362;10.012;2022-12-24T03:23:58;1.75;;;1.40;;
5519;SDS011;2782;52.362;10.012;2022-12-24T03:25:00;1.00;;;0.90;;
5519;SDS011;2782;52.362;10.012;2022-12-24T03:26:04;1.63;;;1.15;;
5519;SDS011;2782;52.362;10.012;2022-12-24T03:27:06;2.30;;;1.55;;
5519;SDS011;2782;52.362;10.012;2022-12-24T03:28:10;3.35;;;1.50;;
5519;SDS011;2782;52.362;10.012;2022-12-24T03:29:13;2.05;;;1.00;;
5519;SDS011;2782;52.362;10.012;2022-12-24T03:30:14;1.20;;;1.00;;
5519;SDS011;2782;52.362;10.012;2022-12-24T03:31:17;1.15;;;1.10;;
5519;SDS011;2782;52.362;10.012;2022-12-24T03:32:23;1.40;;;1.05;;
5519;SDS011;2782;52.362;10.012;2022-12-24T03:33:27;1.30;;;1.20;;
5519;SDS011;2782;52.362;10.012;2022-12-24T03:34:29;1.23;;;1.15;;
5519;SDS011;2782;52.362;10.012;2022-12-24T03:35:30;1.23;;;0.93;;
5519;SDS011;2782;52.362;10.012;2022-12-24T03:36:31;1.20;;;1.10;;
5519;SDS011;2782;52.362;10.012;2022-12-24T03:37:32;1.90;;;1.10;;
5519;SDS011;2782;52.362;10.012;2022-12-24T03:38:33;1.63;;;1.20;;
5519;SDS011;2782;52.362;10.012;2022-12-24T03:39:34;1.40;;;1.20;;
5519;SDS011;2782;52.362;10.012;2022-12-24T03:40:36;1.20;;;1.08;;
5519;SDS011;2782;52.362;10.012;2022-12-24T03:41:36;1.63;;;1.40;;
5519;SDS011;2782;52.362;10.012;2022-12-24T03:42:38;1.95;;;1.30;;
5519;SDS011;2782;52.362;10.012;2022-12-24T03:43:39;1.30;;;1.20;;
5519;SDS011;2782;52.362;10.012;2022-12-24T03:44:40;1.55;;;0.77;;
5519;SDS011;2782;52.362;10.012;2022-12-24T03:45:41;0.97;;;0.97;;
5519;SDS011;2782;52.362;10.012;2022-12-24T03:46:43;1.17;;;0.90;;
5519;SDS011;2782;52.362;10.012;2022-12-24T03:47:45;1.30;;;0.87;;
5519;SDS011;2782;52.362;10.012;2022-12-24T03:48:46;2.35;;;1.05;;
5519;SDS011;2782;52.362;10.012;2022-12-24T03:49:47;2.10;;;1.00;;
5519;SDS011;2782;52.362;10.012;2022-12-24T03:50:49;1.23;;;1.17;;
5519;SDS011;2782;52.362;10.012;2022-12-24T03:51:49;1.07;;;1.07;;
5519;SDS011;2782;52.362;10.012;2022-12-24T03:52:51;3.05;;;0.80;;
5519;SDS011;2782;52.362;10.012;2022-12-24T03:53:53;0.93;;;0.90;;
5519;SDS011;2782;52.362;10.012;2022-12-24T03:54:56;0.80;;;0.80;;
5519;SDS011;2782;52.362;10.012;2022-12-24T03:55:57;0.73;;;0.73;;
5519;SDS011;2782;52.362;10.012;2022-12-24T03:56:58;1.33;;;0.88;;
5519;SDS011;2782;52.362;10.012;2022-12-24T03:57:59;1.37;;;0.73;;
5519;SDS011;2782;52.362;10.012;2022-12-24T03:59:00;0.93;;;0.82;;
5519;SDS011;2782;52.362;10.012;2022-12-24T04:00:01;2.50;;;1.07;;
5519;SDS011;2782;52.362;10.012;2022-12-24T04:01:04;1.88;;;1.00;;
5519;SDS011;2782;52.362;10.012;2022-12-24T04:02:04;1.00;;;0.90;;
5519;SDS011;2782;52.362;10.012;2022-12-24T04:03:07;1.60;;;1.00;;
5519;SDS011;2782;52.362;10.012;2022-12-24T04:04:08;2.10;;;0.70;;
5519;SDS011;2782;52.362;10.012;2022-12-24T04:05:12;1.88;;;0.80;;
5519;SDS011;2782;52.362;10.012;2022-12-24T04:06:14;0.93;;;0.70;;
5519;SDS011;2782;52.362;10.012;2022-12-24T04:07:17;1.23;;;0.73;;
5519;SDS011;2782;52.362;10.012;2022-12-24T04:08:18;2.10;;;1.30;;
5519;SDS011;2782;52.362;10.012;2022-12-24T04:09:20;1.23;;;0.75;;
5519;SDS011;2782;52.362;10.012;2022-12-24T04:10:20;1.10;;;1.00;;
5519;SDS011;2782;52.362;10.012;2022-12-24T04:11:22;1.40;;;1.25;;
5519;SDS011;2782;52.362;10.012;2022-12-24T04:12:22;1.00;;;0.50;;
5519;SDS011;2782;52.362;10.012;2022-12-24T04:13:24;1.50;;;0.85;;
5519;SDS011;2782;52.362;10.012;2022-12-24T04:14:24;0.60;;;0.40;;
5519;SDS011;2782;52.362;10.012;2022-12-24T04:15:26;0.82;;;0.77;;
5519;SDS011;2782;52.362;10.012;2022-12-24T04:16:27;1.03;;;0.70;;
5519;SDS011;2782;52.362;10.012;2022-12-24T04:17:28;1.98;;;1.45;;
5519;SDS011;2782;52.362;10.012;2022-12-24T04:18:30;1.67;;;0.83;;
5519;SDS011;2782;52.362;10.012;2022-12-24T04:19:32;1.33;;;0.80;;
5519;SDS011;2782;52.362;10.012;2022-12-24T04:20:33;1.57;;;0.63;;
5519;SDS011;2782;52.362;10.012;2022-12-24T04:21:34;1.08;;;0.88;;
5519;SDS011;2782;52.362;10.012;2022-12-24T04:22:35;1.77;;;0.80;;
5519;SDS011;2782;52.362;10.012;2022-12-24T04:23:37;1.08;;;0.90;;
5519;SDS011;2782;52.362;10.012;2022-12-24T04:24:39;2.55;;;1.17;;
5519;SDS011;2782;52.362;10.012;2022-12-24T04:25:40;0.80;;;0.80;;
5519;SDS011;2782;52.362;10.012;2022-12-24T04:26:41;1.47;;;0.70;;
5519;SDS011;2782;52.362;10.012;2022-12-24T04:27:42;1.50;;;0.85;;
5519;SDS011;2782;52.362;10.012;2022-12-24T04:28:43;1.17;;;0.77;;
5519;SDS011;2782;52.362;10.012;2022-12-24T04:29:44;3.00;;;0.73;;
5519;SDS011;2782;52.362;10.012;2022-12-24T04:30:45;2.83;;;1.10;;
5519;SDS011;2782;52.362;10.012;2022-12-24T04:31:47;2.13;;;0.93;;
5519;SDS011;2782;52.362;10.012;2022-12-24T04:32:47;2.13;;;0.70;;
5519;SDS011;2782;52.362;10.012;2022-12-24T04:33:50;2.08;;;1.05;;
5519;SDS011;2782;52.362;10.012;2022-12-24T04:34:51;1.42;;;0.90;;
5519;SDS011;2782;52.362;10.012;2022-12-24T04:35:53;1.50;;;0.65;;
5519;SDS011;2782;52.362;10.012;2022-12-24T04:36:56;1.10;;;0.65;;
5519;SDS011;2782;52.362;10.012;2022-12-24T04:37:57;2.00;;;1.15;;
5519;SDS011;2782;52.362;10.012;2022-12-24T04:38:59;3.72;;;0.73;;
5519;SDS011;2782;52.362;10.012;2022-12-24T04:40:00;2.93;;;0.77;;
5519;SDS011;2782;52.362;10.012;2022-12-24T04:41:02;1.30;;;0.60;;
5519;SDS011;2782;52.362;10.012;2022-12-24T04:42:04;1.40;;;0.75;;
5519;SDS011;2782;52.362;10.012;2022-12-24T04:43:06;1.33;;;0.70;;
5519;SDS011;2782;52.362;10.012;2022-12-24T04:44:07;1.67;;;0.80;;
5519;SDS011;2782;52.362;10.012;2022-12-24T04:45:09;1.25;;;0.63;;
5519;SDS011;2782;52.362;10.012;2022-12-24T04:46:11;1.20;;;0.50;;
5519;SDS011;2782;52.362;10.012;2022-12-24T04:47:14;2.35;;;0.85;;
5519;SDS011;2782;52.362;10.012;2022-12-24T04:48:15;1.63;;;1.07;;
5519;SDS011;2782;52.362;10.012;2022-12-24T04:49:18;1.20;;;0.70;;
5519;SDS011;2782;52.362;10.012;2022-12-24T04:50:18;2.25;;;0.80;;
5519;SDS011;2782;52.362;10.012;2022-12-24T04:51:20;1.13;;;0.65;;
5519;SDS011;2782;52.362;10.012;2022-12-24T04:52:21;0.88;;;0.70;;
5519;SDS011;2782;52.362;10.012;2022-12-24T04:53:23;1.98;;;0.75;;
5519;SDS011;2782;52.362;10.012;2022-12-24T04:54:24;1.00;;;0.87;;
5519;SDS011;2782;52.362;10.012;2022-12-24T04:55:27;3.22;;;0.82;;
5519;SDS011;2782;52.362;10.012;2022-12-24T04:56:30;1.65;;;1.00;;
5519;SDS011;2782;52.362;10.012;2022-12-24T04:57:32;1.73;;;0.73;;
5519;SDS011;2782;52.362;10.012;2022-12-24T04:58:34;2.03;;;0.90;;
5519;SDS011;2782;52.362;10.012;2022-12-24T04:59:36;1.10;;;0.57;;
5519;SDS011;2782;52.362;10.012;2022-12-24T05:00:36;1.20;;;0.53;;
5519;SDS011;2782;52.362;10.012;2022-12-24T05:01:38;2.10;;;0.90;;
5519;SDS011;2782;52.362;10.012;2022-12-24T05:02:39;1.00;;;0.90;;
5519;SDS011;2782;52.362;10.012;2022-12-24T05:03:40;1.50;;;0.60;;
5519;SDS011;2782;52.362;10.012;2022-12-24T05:04:42;1.40;;;0.70;;
5519;SDS011;2782;52.362;10.012;2022-12-24T05:05:44;2.60;;;0.65;;
5519;SDS011;2782;52.362;10.012;2022-12-24T05:06:45;1.20;;;0.77;;
5519;SDS011;2782;52.362;10.012;2022-12-24T05:07:46;1.83;;;0.80;;
5519;SDS011;2782;52.362;10.012;2022-12-24T05:08:47;1.63;;;0.83;;
5519;SDS011;2782;52.362;10.012;2022-12-24T05:09:48;2.45;;;0.82;;
5519;SDS011;2782;52.362;10.012;2022-12-24T05:10:53;1.60;;;0.80;;
5519;SDS011;2782;52.362;10.012;2022-12-24T05:11:55;1.67;;;0.70;;
5519;SDS011;2782;52.362;10.012;2022-12-24T05:12:57;1.17;;;0.77;;
5519;SDS011;2782;52.362;10.012;2022-12-24T05:13:57;1.90;;;0.70;;
5519;SDS011;2782;52.362;10.012;2022-12-24T05:14:59;1.08;;;0.90;;
5519;SDS011;2782;52.362;10.012;2022-12-24T05:16:00;1.33;;;0.90;;
5519;SDS011;2782;52.362;10.012;2022-12-24T05:17:01;1.10;;;0.77;;
5519;SDS011;2782;52.362;10.012;2022-12-24T05:18:02;1.43;;;0.80;;
5519;SDS011;2782;52.362;10.012;2022-12-24T05:19:04;1.85;;;0.85;;
5519;SDS011;2782;52.362;10.012;2022-12-24T05:20:07;0.80;;;0.73;;
5519;SDS011;2782;52.362;10.012;2022-12-24T05:21:09;1.90;;;0.90;;
5519;SDS011;2782;52.362;10.012;2022-12-24T05:22:10;1.42;;;0.60;;
5519;SDS011;2782;52.362;10.012;2022-12-24T05:23:29;1.45;;;0.60;;
5519;SDS011;2782;52.362;10.012;2022-12-24T05:24:48;2.10;;;0.93;;
5519;SDS011;2782;52.362;10.012;2022-12-24T05:26:10;1.17;;;0.50;;
5519;SDS011;2782;52.362;10.012;2022-12-24T05:27:23;1.13;;;0.65;;
5519;SDS011;2782;52.362;10.012;2022-12-24T05:28:24;1.83;;;0.80;;
5519;SDS011;2782;52.362;10.012;2022-12-24T05:29:26;2.70;;;0.75;;
5519;SDS011;2782;52.362;10.012;2022-12-24T05:30:26;1.40;;;0.80;;
5519;SDS011;2782;52.362;10.012;2022-12-24T05:31:29;1.50;;;0.50;;
5519;SDS011;2782;52.362;10.012;2022-12-24T05:32:32;4.85;;;0.65;;
5519;SDS011;2782;52.362;10.012;2022-12-24T05:33:34;1.30;;;0.50;;
5519;SDS011;2782;52.362;10.012;2022-12-24T05:34:34;2.27;;;0.70;;
5519;SDS011;2782;52.362;10.012;2022-12-24T05:35:37;2.03;;;0.70;;
5519;SDS011;2782;52.362;10.012;2022-12-24T05:36:38;0.68;;;0.43;;
5519;SDS011;2782;52.362;10.012;2022-12-24T05:37:40;1.45;;;0.52;;
5519;SDS011;2782;52.362;10.012;2022-12-24T05:38:40;2.40;;;1.20;;
5519;SDS011;2782;52.362;10.012;2022-12-24T05:39:42;1.13;;;0.82;;
5519;SDS011;2782;52.362;10.012;2022-12-24T05:40:43;2.50;;;0.90;;
5519;SDS011;2782;52.362;10.012;2022-12-24T05:41:44;1.63;;;0.63;;
5519;SDS011;2782;52.362;10.012;2022-12-24T05:42:45;1.00;;;0.77;;
5519;SDS011;2782;52.362;10.012;2022-12-24T05:43:47;2.80;;;0.68;;
5519;SDS011;2782;52.362;10.012;2022-12-24T05:44:48;1.83;;;0.63;;
5519;SDS011;2782;52.362;10.012;2022-12-24T05:45:49;0.90;;;0.60;;
5519;SDS011;2782;52.362;10.012;2022-12-24T05:46:50;1.70;;;0.60;;
5519;SDS011;2782;52.362;10.012;2022-12-24T05:47:52;2.55;;;0.90;;
5519;SDS011;2782;52.362;10.012;2022-12-24T05:48:52;0.90;;;0.50;;
5519;SDS011;2782;52.362;10.012;2022-12-24T05:49:54;1.08;;;0.60;;
5519;SDS011;2782;52.362;10.012;2022-12-24T05:50:56;4.90;;;0.40;;
5519;SDS011;2782;52.362;10.012;2022-12-24T05:51:57;1.40;;;0.73;;
5519;SDS011;2782;52.362;10.012;2022-12-24T05:52:59;1.90;;;0.60;;
5519;SDS011;2782;52.362;10.012;2022-12-24T05:54:00;0.60;;;0.57;;
5519;SDS011;2782;52.362;10.012;2022-12-24T05:55:01;1.63;;;0.70;;
5519;SDS011;2782;52.362;10.012;2022-12-24T05:56:03;1.50;;;0.73;;
5519;SDS011;2782;52.362;10.012;2022-12-24T05:57:06;7.03;;;0.90;;
5519;SDS011;2782;52.362;10.012;2022-12-24T05:58:07;2.72;;;0.90;;
5519;SDS011;2782;52.362;10.012;2022-12-24T05:59:08;2.15;;;0.80;;
5519;SDS011;2782;52.362;10.012;2022-12-24T06:00:09;1.03;;;0.60;;
5519;SDS011;2782;52.362;10.012;2022-12-24T06:01:12;1.27;;;0.70;;
5519;SDS011;2782;52.362;10.012;2022-12-24T06:02:12;1.05;;;0.57;;
5519;SDS011;2782;52.362;10.012;2022-12-24T06:03:14;1.15;;;0.60;;
5519;SDS011;2782;52.362;10.012;2022-12-24T06:04:15;4.00;;;0.60;;
5519;SDS011;2782;52.362;10.012;2022-12-24T06:05:16;0.82;;;0.50;;
5519;SDS011;2782;52.362;10.012;2022-12-24T06:06:19;1.37;;;0.60;;
5519;SDS011;2782;52.362;10.012;2022-12-24T06:07:24;2.55;;;0.70;;
5519;SDS011;2782;52.362;10.012;2022-12-24T06:08:25;3.67;;;0.60;;
5519;SDS011;2782;52.362;10.012;2022-12-24T06:09:27;0.80;;;0.52;;
5519;SDS011;2782;52.362;10.012;2022-12-24T06:10:27;1.27;;;0.50;;
5519;SDS011;2782;52.362;10.012;2022-12-24T06:11:29;1.38;;;0.65;;
5519;SDS011;2782;52.362;10.012;2022-12-24T06:12:30;1.23;;;0.50;;
5519;SDS011;2782;52.362;10.012;2022-12-24T06:13:31;1.42;;;0.75;;
5519;SDS011;2782;52.362;10.012;2022-12-24T06:14:32;1.60;;;0.60;;
5519;SDS011;2782;52.362;10.012;2022-12-24T06:15:34;1.00;;;0.50;;
5519;SDS011;2782;52.362;10.012;2022-12-24T06:16:35;2.03;;;0.70;;
5519;SDS011;2782;52.362;10.012;2022-12-24T06:17:37;1.15;;;0.70;;
5519;SDS011;2782;52.362;10.012;2022-12-24T06:18:37;1.27;;;0.50;;
5519;SDS011;2782;52.362;10.012;2022-12-24T06:19:39;1.40;;;0.85;;
5519;SDS011;2782;52.362;10.012;2022-12-24T06:20:40;1.30;;;0.60;;
5519;SDS011;2782;52.362;10.012;2022-12-24T06:21:42;0.80;;;0.68;;
5519;SDS011;2782;52.362;10.012;2022-12-24T06:22:43;5.25;;;0.70;;
5519;SDS011;2782;52.362;10.012;2022-12-24T06:23:45;2.47;;;1.10;;
5519;SDS011;2782;52.362;10.012;2022-12-24T06:24:46;1.88;;;0.50;;
5519;SDS011;2782;52.362;10.012;2022-12-24T06:25:48;0.93;;;0.40;;
5519;SDS011;2782;52.362;10.012;2022-12-24T06:26:49;1.10;;;0.90;;
5519;SDS011;2782;52.362;10.012;2022-12-24T06:27:51;1.02;;;0.38;;